Geff, Illinois
Current Conditions -  °F | °C
As of 9:35 AM on Friday 19 Dec 2014 (Local Time) from KFWC Reporting Station
Scattered Clouds Scattered Clouds  
Wind Chill: 26°   Ceiling: Unl
Heat Index: 31°   Visibility: 7mi
Dew Point: 26°   Wind: 5mph
Humidity: 80%   Direction: 50°NE
Pressure: 30.31"   Gusts: NA
Location:  38.44°N, 88.4°W
Report Text: KFWC 191535Z AUTO 05004KT 7SM SCT011 00/M03 A3031 RMK AO1 T10051035
Loading
Personal Weather Stations






























Interactive Weather Map New forecast layout! Learn more

10-Day Weather Forecast

Advertisements
Track Severe Weather on mobile